Current | Forecast
Updated: 12:30 PM MSK on April 26, 2018
Observed at Mineral'Nye Vody, Russia
Temperature 77°F
Humidity 26%
Dew Point 39°F
Wind East at 4 mph
Pressure 30.01 in (Steady)
Conditions Clear
Visibility 6.2 miles
UV N/A
Clouds
Yesterday's Maximum 72°F
Yesterday's Minimum 34°F approx.
Yesterday's Heating Degree Days 12 approx.
Sunrise5:06 AM MSK
Sunset7:04 PM MSK
Moon Rise3:04 PM MSK
Moon Set3:35 AM MSK
Moon PhaseMoon Phase
Waxing Gibbous
Raw METARMETAR URMM 260930Z 08002MPS 9999 NSC 25/04 Q1016 R12/090070 NOSIG RMK QFE734/0979


Monday
. High: 71° F.
Tuesday
. High: 68° F.
Wednesday
. High: 60° F.
Thursday
. High: 64° F.
Friday
. High: 62° F.
Saturday
. High: 64° F.
Sunday
. High: 60° F.
Monday
. High: 66° F.

Units: English | Metric

Find the Weather for any City, State or Zipcode, or Country:

U.S. State List | Severe Weather | Tropical Storms | Ski Conditions
United States | Canada | Central America | South America | Asia | Europe | Australia | Africa | Islands

Weather Underground

© Copyright 2018
The Weather Company, LLC